createdAt,value
2022-08-26T00:01:53.817Z,23.60
2022-08-26T00:04:23.189Z,18.70
2022-08-26T00:06:51.348Z,17.10
2022-08-26T00:09:18.085Z,17.10
2022-08-26T00:11:46.073Z,15.80
2022-08-26T00:14:14.177Z,17.60
2022-08-26T00:16:47.287Z,17.30
2022-08-26T00:19:21.162Z,18.20
2022-08-26T00:21:49.858Z,18.60
2022-08-26T00:24:18.510Z,16.40
2022-08-26T00:26:45.961Z,16.80
2022-08-26T00:29:14.051Z,17.10
2022-08-26T00:31:43.032Z,25.00
2022-08-26T00:34:12.831Z,19.60
2022-08-26T00:36:40.924Z,17.10
2022-08-26T00:39:09.195Z,19.90
2022-08-26T00:41:39.492Z,18.50
2022-08-26T00:44:07.173Z,24.70
2022-08-26T00:46:37.121Z,10.60
2022-08-26T00:49:17.155Z,11.10
2022-08-26T00:51:49.634Z,11.30
2022-08-26T00:54:17.392Z,13.00
2022-08-26T00:56:53.752Z,15.30
2022-08-26T00:59:22.433Z,16.90
2022-08-26T01:01:50.219Z,15.70
2022-08-26T01:04:19.912Z,15.20
2022-08-26T01:06:49.811Z,13.20
2022-08-26T01:09:18.192Z,13.50
2022-08-26T01:11:45.652Z,15.30
2022-08-26T01:14:13.532Z,14.40
2022-08-26T01:16:42.240Z,12.20
2022-08-26T01:19:41.113Z,12.50
2022-08-26T01:22:12.250Z,14.10
2022-08-26T01:24:39.191Z,17.20
2022-08-26T01:27:10.070Z,14.30
2022-08-26T01:29:38.804Z,14.40
2022-08-26T01:32:08.077Z,11.70
2022-08-26T01:34:38.770Z,11.90
2022-08-26T01:37:22.697Z,12.50
2022-08-26T01:39:52.086Z,11.80
2022-08-26T01:42:21.092Z,11.10
2022-08-26T01:44:57.940Z,10.90
2022-08-26T01:47:26.223Z,10.10
2022-08-26T01:49:55.134Z,11.20
2022-08-26T01:52:28.386Z,11.40
2022-08-26T01:54:56.065Z,11.60
2022-08-26T01:57:24.152Z,12.30
2022-08-26T01:59:53.340Z,11.50
2022-08-26T02:02:20.393Z,12.90
2022-08-26T02:04:51.352Z,12.20
2022-08-26T02:07:19.595Z,11.10
2022-08-26T02:09:48.491Z,11.30
2022-08-26T02:12:17.278Z,11.00
2022-08-26T02:14:49.750Z,10.80
2022-08-26T02:17:18.961Z,8.80
2022-08-26T02:19:50.012Z,10.80
2022-08-26T02:22:20.538Z,10.00
2022-08-26T02:24:56.965Z,9.90
2022-08-26T02:27:32.117Z,9.20
2022-08-26T02:30:15.087Z,11.90
2022-08-26T02:32:44.629Z,9.80
2022-08-26T02:35:14.130Z,11.40
2022-08-26T02:37:47.971Z,11.70
2022-08-26T02:40:21.451Z,12.30
2022-08-26T02:42:49.272Z,10.80
2022-08-26T02:45:23.061Z,12.10
2022-08-26T02:47:51.556Z,12.30
2022-08-26T02:50:20.226Z,14.50
2022-08-26T02:52:48.463Z,12.70
2022-08-26T02:55:16.145Z,11.90
2022-08-26T02:57:43.191Z,11.10
2022-08-26T03:00:12.640Z,12.80
2022-08-26T03:02:40.872Z,11.00
2022-08-26T03:05:08.254Z,11.30
2022-08-26T03:07:34.753Z,11.00
2022-08-26T03:10:01.712Z,11.80
2022-08-26T03:12:35.408Z,11.70
2022-08-26T03:15:02.002Z,12.70
2022-08-26T03:17:29.810Z,12.30
2022-08-26T03:19:57.193Z,11.60
2022-08-26T03:22:25.646Z,12.50
2022-08-26T03:24:54.136Z,12.30
2022-08-26T03:27:21.082Z,11.70
2022-08-26T03:30:06.752Z,12.10
2022-08-26T03:32:33.702Z,12.00
2022-08-26T03:35:01.265Z,11.70
2022-08-26T03:37:28.009Z,12.00
2022-08-26T03:39:54.880Z,12.60
2022-08-26T03:42:21.900Z,12.80
2022-08-26T03:44:48.934Z,14.60
2022-08-26T03:47:15.460Z,13.30
2022-08-26T03:49:42.611Z,13.80
2022-08-26T03:52:10.272Z,13.80
2022-08-26T03:54:37.033Z,14.60
2022-08-26T03:57:04.370Z,14.50
2022-08-26T03:59:31.931Z,13.70
2022-08-26T04:01:58.504Z,14.50
2022-08-26T04:04:25.708Z,14.40
2022-08-26T04:06:58.188Z,11.60
2022-08-26T04:09:25.972Z,11.80
2022-08-26T04:11:54.636Z,13.00
2022-08-26T04:14:23.718Z,12.40
2022-08-26T04:16:52.031Z,13.30
2022-08-26T04:19:20.414Z,14.20
2022-08-26T04:21:48.250Z,14.00
2022-08-26T04:24:16.557Z,13.60
2022-08-26T04:26:44.713Z,14.30
2022-08-26T04:29:15.569Z,14.40
2022-08-26T04:31:42.116Z,14.70
2022-08-26T04:34:09.554Z,13.80
2022-08-26T04:36:38.434Z,14.60
2022-08-26T04:39:05.624Z,13.90
2022-08-26T04:41:33.173Z,14.70
2022-08-26T04:44:01.455Z,14.60
2022-08-26T04:46:28.617Z,15.90
2022-08-26T04:48:55.298Z,18.50
2022-08-26T04:51:27.052Z,15.00
2022-08-26T04:53:58.837Z,15.70
2022-08-26T04:56:32.512Z,15.80
2022-08-26T04:59:00.994Z,17.30
2022-08-26T05:01:28.785Z,16.30
2022-08-26T05:03:56.139Z,15.40
2022-08-26T05:06:22.755Z,16.00
2022-08-26T05:08:49.843Z,16.30
2022-08-26T05:11:16.456Z,16.10
2022-08-26T05:13:43.175Z,15.30
2022-08-26T05:16:13.520Z,14.80
2022-08-26T05:18:43.465Z,15.90
2022-08-26T05:21:41.713Z,15.00
2022-08-26T05:24:11.733Z,15.20
2022-08-26T05:26:38.476Z,15.20
2022-08-26T05:29:06.210Z,15.30
2022-08-26T05:31:34.243Z,14.40
2022-08-26T05:34:03.816Z,14.20
2022-08-26T05:36:33.029Z,14.50
2022-08-26T05:39:01.593Z,13.30
2022-08-26T05:41:34.425Z,14.40
2022-08-26T05:44:06.073Z,15.40
2022-08-26T05:46:33.876Z,14.10
2022-08-26T05:49:01.556Z,14.70
2022-08-26T05:51:30.434Z,13.10
2022-08-26T05:53:58.361Z,18.60
2022-08-26T05:56:27.470Z,15.60
2022-08-26T05:58:55.462Z,13.90
2022-08-26T06:01:27.659Z,15.90
2022-08-26T06:04:01.789Z,14.50
2022-08-26T06:06:32.313Z,14.20
2022-08-26T06:09:00.558Z,15.30
2022-08-26T06:11:29.135Z,16.10
2022-08-26T06:14:04.003Z,16.70
2022-08-26T06:16:34.486Z,15.90
2022-08-26T06:19:03.336Z,15.80
2022-08-26T06:21:33.126Z,17.00
2022-08-26T06:24:20.709Z,16.30
2022-08-26T06:26:56.803Z,19.60
2022-08-26T06:29:25.757Z,17.70
2022-08-26T06:31:54.254Z,16.90
2022-08-26T06:34:29.898Z,17.50
2022-08-26T06:36:59.826Z,17.10
2022-08-26T06:39:28.316Z,16.20
2022-08-26T06:41:58.819Z,16.60
2022-08-26T06:44:26.695Z,16.40
2022-08-26T06:46:54.171Z,16.60
2022-08-26T06:49:26.919Z,17.90
2022-08-26T06:51:57.657Z,19.20
2022-08-26T06:54:24.909Z,18.20
2022-08-26T06:56:52.174Z,16.70
2022-08-26T06:59:18.998Z,18.20
2022-08-26T07:01:48.338Z,17.70
2022-08-26T07:04:22.085Z,17.80
2022-08-26T07:06:52.607Z,17.50
2022-08-26T07:09:21.716Z,19.50
2022-08-26T07:11:49.280Z,17.90
2022-08-26T07:14:17.667Z,21.00
2022-08-26T07:16:51.375Z,20.70
2022-08-26T07:19:28.529Z,19.60
2022-08-26T07:22:01.603Z,18.20
2022-08-26T07:24:29.275Z,17.70
2022-08-26T07:27:05.491Z,19.00
2022-08-26T07:29:34.326Z,18.60
2022-08-26T07:32:01.638Z,20.20
2022-08-26T07:34:28.856Z,19.50
2022-08-26T07:36:56.761Z,18.30
2022-08-26T07:39:26.336Z,19.70
2022-08-26T07:41:53.781Z,21.20
2022-08-26T07:44:20.957Z,19.30
2022-08-26T07:46:52.237Z,21.20
2022-08-26T07:49:22.165Z,21.90
2022-08-26T07:51:50.405Z,21.70
2022-08-26T07:54:17.433Z,18.10
2022-08-26T07:56:47.136Z,20.30
2022-08-26T07:59:15.291Z,19.20
2022-08-26T08:01:44.737Z,23.90
2022-08-26T08:04:17.055Z,22.90
2022-08-26T08:06:45.457Z,20.10
2022-08-26T08:09:14.426Z,22.50
2022-08-26T08:11:44.508Z,21.00
2022-08-26T08:14:11.976Z,23.50
2022-08-26T08:16:45.899Z,27.60
2022-08-26T08:19:14.845Z,23.80
2022-08-26T08:21:42.918Z,23.40
2022-08-26T08:24:10.471Z,23.60
2022-08-26T08:26:37.408Z,22.10
2022-08-26T08:29:04.674Z,25.40
2022-08-26T08:34:21.584Z,23.90
2022-08-26T08:36:50.220Z,18.50
2022-08-26T08:39:20.316Z,22.70
2022-08-26T08:42:05.874Z,18.40
2022-08-26T08:44:33.456Z,18.20
2022-08-26T08:47:06.091Z,19.60
2022-08-26T08:49:33.567Z,19.70
2022-08-26T08:52:12.820Z,17.80
2022-08-26T08:54:39.439Z,19.40
2022-08-26T08:57:17.696Z,19.70
2022-08-26T08:59:54.753Z,17.70
2022-08-26T09:02:34.400Z,21.60
2022-08-26T09:05:25.216Z,18.90
2022-08-26T09:08:08.191Z,15.40
2022-08-26T09:10:51.285Z,18.90
2022-08-26T09:13:25.058Z,19.40
2022-08-26T09:16:21.441Z,18.20
2022-08-26T09:19:20.615Z,17.10
2022-08-26T09:21:57.890Z,17.30
2022-08-26T09:24:28.881Z,18.90
2022-08-26T09:26:57.799Z,17.80
2022-08-26T09:29:31.594Z,17.50
2022-08-26T09:32:23.956Z,18.50
2022-08-26T09:34:59.492Z,19.40
2022-08-26T09:40:27.095Z,16.10
2022-08-26T09:43:11.414Z,18.30
2022-08-26T09:45:40.878Z,15.00
2022-08-26T09:48:25.910Z,17.90
2022-08-26T09:50:59.388Z,15.70
2022-08-26T09:53:36.608Z,14.50
2022-08-26T09:56:33.513Z,16.90
2022-08-26T09:59:01.272Z,11.90
2022-08-26T10:01:42.710Z,15.30
2022-08-26T10:04:21.818Z,13.90
2022-08-26T10:06:59.454Z,13.10
2022-08-26T10:09:28.123Z,14.50
2022-08-26T10:11:59.814Z,16.30
2022-08-26T10:14:36.775Z,14.50
2022-08-26T10:17:30.931Z,13.30
2022-08-26T10:20:27.334Z,14.10
2022-08-26T10:23:15.521Z,13.10
2022-08-26T10:26:00.479Z,13.70
2022-08-26T10:28:31.684Z,14.40
2022-08-26T10:31:03.874Z,16.50
2022-08-26T10:33:31.122Z,12.20
2022-08-26T10:36:00.942Z,13.50
2022-08-26T10:38:39.535Z,13.00
2022-08-26T10:41:11.489Z,14.20
2022-08-26T10:43:44.078Z,11.00
2022-08-26T10:46:18.067Z,13.40
2022-08-26T10:48:56.413Z,14.70
2022-08-26T10:51:35.362Z,15.50
2022-08-26T10:54:29.712Z,11.20
2022-08-26T10:57:13.145Z,13.70
2022-08-26T11:00:30.016Z,13.20
2022-08-26T11:03:29.309Z,13.20
2022-08-26T11:06:18.375Z,15.00
2022-08-26T11:08:51.096Z,10.40
2022-08-26T11:11:40.378Z,13.10
2022-08-26T11:14:31.416Z,15.00
2022-08-26T11:17:11.052Z,15.00
2022-08-26T11:19:59.440Z,14.40
2022-08-26T11:22:35.458Z,14.10
2022-08-26T11:25:09.513Z,13.30
2022-08-26T11:27:38.298Z,10.60
2022-08-26T11:30:30.974Z,14.30
2022-08-26T11:32:59.349Z,12.50
2022-08-26T11:35:26.390Z,11.70
2022-08-26T11:38:04.490Z,10.70
2022-08-26T11:40:38.251Z,12.20
2022-08-26T11:43:13.422Z,11.50
2022-08-26T11:45:48.838Z,15.00
2022-08-26T11:48:23.933Z,11.50
2022-08-26T11:50:56.604Z,12.60
2022-08-26T11:53:26.096Z,11.80
2022-08-26T11:55:54.977Z,15.30
2022-08-26T11:58:24.929Z,13.10
2022-08-26T12:00:59.307Z,14.40
2022-08-26T12:03:47.513Z,11.30
2022-08-26T12:06:43.398Z,11.40
2022-08-26T12:09:20.636Z,12.10
2022-08-26T12:11:47.373Z,15.00
2022-08-26T12:14:24.073Z,15.20
2022-08-26T12:16:51.444Z,14.90
2022-08-26T12:19:32.873Z,12.80
2022-08-26T12:22:23.441Z,10.60
2022-08-26T12:25:00.169Z,11.60
2022-08-26T12:27:39.862Z,11.20
2022-08-26T12:30:12.471Z,13.80
2022-08-26T12:32:57.964Z,11.40
2022-08-26T12:35:26.823Z,10.70
2022-08-26T12:37:54.564Z,11.00
2022-08-26T12:40:40.857Z,12.70
2022-08-26T12:43:09.624Z,12.00
2022-08-26T12:45:36.584Z,17.30
2022-08-26T12:48:10.409Z,10.70
2022-08-26T12:50:41.034Z,10.00
2022-08-26T12:53:10.654Z,13.10
2022-08-26T12:55:49.091Z,11.10
2022-08-26T12:58:15.823Z,9.60
2022-08-26T13:00:48.504Z,10.10
2022-08-26T13:03:32.317Z,14.00
2022-08-26T13:06:23.164Z,11.30
2022-08-26T13:08:51.628Z,12.10
2022-08-26T13:11:25.819Z,12.70
2022-08-26T13:14:00.151Z,12.80
2022-08-26T13:16:29.232Z,10.50
2022-08-26T13:19:06.411Z,9.90
2022-08-26T13:21:49.117Z,13.50
2022-08-26T13:24:36.476Z,11.00
2022-08-26T13:27:30.323Z,10.10
2022-08-26T13:29:57.696Z,10.60
2022-08-26T13:32:27.566Z,10.70
2022-08-26T13:34:58.556Z,11.60
2022-08-26T13:37:34.548Z,11.30
2022-08-26T13:40:05.174Z,12.90
2022-08-26T13:42:32.008Z,11.30
2022-08-26T13:44:59.636Z,11.30
2022-08-26T13:47:27.768Z,10.10
2022-08-26T13:49:55.960Z,9.70
2022-08-26T13:52:30.151Z,12.40
2022-08-26T13:55:00.592Z,10.90
2022-08-26T13:57:30.262Z,15.40
2022-08-26T13:59:59.220Z,9.80
2022-08-26T14:02:27.258Z,11.00
2022-08-26T14:04:55.660Z,9.90
2022-08-26T14:07:22.815Z,11.60
2022-08-26T14:09:49.802Z,10.20
2022-08-26T14:12:16.412Z,11.70
2022-08-26T14:14:43.575Z,9.30
2022-08-26T14:17:14.666Z,10.10
2022-08-26T14:19:45.637Z,9.10
2022-08-26T14:22:14.534Z,9.90
2022-08-26T14:24:41.275Z,12.20
2022-08-26T14:27:07.893Z,11.60
2022-08-26T14:29:34.958Z,10.60
2022-08-26T14:32:14.060Z,15.50
2022-08-26T14:34:46.554Z,9.60
2022-08-26T14:37:15.405Z,13.10
2022-08-26T14:39:42.194Z,9.60
2022-08-26T14:42:09.954Z,11.20
2022-08-26T14:44:37.517Z,9.00
2022-08-26T14:47:06.616Z,10.40
2022-08-26T14:49:33.539Z,9.70
2022-08-26T14:52:00.614Z,10.90
2022-08-26T14:54:28.995Z,8.40
2022-08-26T14:56:58.300Z,10.10
2022-08-26T14:59:49.718Z,9.80
2022-08-26T15:02:32.435Z,7.80
2022-08-26T15:05:02.270Z,9.50
2022-08-26T15:07:29.076Z,10.70
2022-08-26T15:09:55.934Z,9.90
2022-08-26T15:12:22.753Z,12.10
2022-08-26T15:14:49.995Z,10.60
2022-08-26T15:17:17.363Z,9.50
2022-08-26T15:19:45.014Z,9.20
2022-08-26T15:22:11.540Z,9.60
2022-08-26T15:24:38.194Z,9.70
2022-08-26T15:27:05.347Z,11.70
2022-08-26T15:29:32.861Z,10.80
2022-08-26T15:32:04.354Z,13.50
2022-08-26T15:34:31.925Z,11.10
2022-08-26T15:36:58.553Z,8.60
2022-08-26T15:39:25.194Z,9.70
2022-08-26T15:41:52.534Z,8.90
2022-08-26T15:44:19.914Z,11.00
2022-08-26T15:46:48.626Z,11.30
2022-08-26T15:49:17.807Z,9.70
2022-08-26T15:51:47.558Z,10.10
2022-08-26T15:54:16.466Z,11.40
2022-08-26T15:56:43.703Z,9.50
2022-08-26T15:59:11.924Z,11.60
2022-08-26T16:01:40.860Z,11.10
2022-08-26T16:04:07.634Z,13.40
2022-08-26T16:06:37.352Z,8.40
2022-08-26T16:09:05.267Z,8.60
2022-08-26T16:11:32.054Z,9.60
2022-08-26T16:13:58.909Z,10.00
2022-08-26T16:16:27.142Z,11.10
2022-08-26T16:18:55.182Z,12.30
2022-08-26T16:21:25.054Z,10.60
2022-08-26T16:23:52.114Z,11.50
2022-08-26T16:26:22.134Z,9.60
2022-08-26T16:28:48.754Z,10.50
2022-08-26T16:31:15.799Z,10.60
2022-08-26T16:33:42.739Z,10.70
2022-08-26T16:36:11.036Z,12.10
2022-08-26T16:38:40.321Z,9.40
2022-08-26T16:41:08.103Z,9.50
2022-08-26T16:43:36.154Z,11.20
2022-08-26T16:46:06.219Z,8.60
2022-08-26T16:48:34.381Z,11.00
2022-08-26T16:51:01.794Z,9.60
2022-08-26T16:53:29.976Z,10.00
2022-08-26T16:55:57.017Z,10.70
2022-08-26T16:58:24.476Z,14.10
2022-08-26T17:00:51.133Z,12.00
2022-08-26T17:03:18.817Z,12.80
2022-08-26T17:05:46.654Z,10.70
2022-08-26T17:08:24.212Z,10.80
2022-08-26T17:10:59.913Z,9.80
2022-08-26T17:13:31.642Z,10.70
2022-08-26T17:16:02.016Z,12.20
2022-08-26T17:18:31.274Z,11.50
2022-08-26T17:21:02.043Z,13.00
2022-08-26T17:23:29.464Z,18.10
2022-08-26T17:25:57.455Z,14.20
2022-08-26T17:28:24.294Z,13.00
2022-08-26T17:30:51.473Z,11.20
2022-08-26T17:33:21.448Z,10.30
2022-08-26T17:35:51.281Z,11.70
2022-08-26T17:38:18.399Z,13.30
2022-08-26T17:40:45.146Z,14.50
2022-08-26T17:43:12.627Z,14.40
2022-08-26T17:45:42.122Z,12.70
2022-08-26T17:48:10.340Z,14.40
2022-08-26T17:50:38.975Z,13.60
2022-08-26T17:53:05.665Z,13.60
2022-08-26T17:55:33.460Z,14.20
2022-08-26T17:58:00.302Z,13.70
2022-08-26T18:00:30.627Z,11.70
2022-08-26T18:02:58.211Z,11.90
2022-08-26T18:05:25.539Z,12.80
2022-08-26T18:07:53.510Z,13.50
2022-08-26T18:10:21.898Z,15.00
2022-08-26T18:12:50.069Z,12.60
2022-08-26T18:15:17.533Z,11.50
2022-08-26T18:17:44.994Z,12.50
2022-08-26T18:20:15.208Z,13.80
2022-08-26T18:22:43.275Z,12.30
2022-08-26T18:25:11.501Z,11.90
2022-08-26T18:27:38.415Z,12.90
2022-08-26T18:30:16.423Z,12.70
2022-08-26T18:32:44.058Z,15.90
2022-08-26T18:35:11.824Z,12.90
2022-08-26T18:37:38.758Z,13.10
2022-08-26T18:40:07.770Z,14.50
2022-08-26T18:42:35.754Z,13.70
2022-08-26T18:45:04.273Z,14.60
2022-08-26T18:47:32.416Z,14.00
2022-08-26T18:50:01.201Z,14.20
2022-08-26T18:52:28.534Z,13.90
2022-08-26T18:54:55.335Z,16.30
2022-08-26T18:57:22.234Z,13.60
2022-08-26T18:59:49.379Z,11.50
2022-08-26T19:02:16.583Z,12.80
2022-08-26T19:04:43.898Z,12.20
2022-08-26T19:07:11.012Z,10.00
2022-08-26T19:09:37.756Z,15.40
2022-08-26T19:12:05.327Z,13.50
2022-08-26T19:14:33.382Z,12.10
2022-08-26T19:17:01.648Z,10.60
2022-08-26T19:19:28.815Z,13.10
2022-08-26T19:21:56.972Z,12.10
2022-08-26T19:24:27.383Z,17.20
2022-08-26T19:26:58.291Z,14.30
2022-08-26T19:29:29.040Z,11.50
2022-08-26T19:31:56.646Z,11.00
2022-08-26T19:34:24.514Z,8.60
2022-08-26T19:36:53.577Z,11.20
2022-08-26T19:39:21.362Z,11.60
2022-08-26T19:41:49.541Z,14.10
2022-08-26T19:44:38.269Z,11.30
2022-08-26T19:47:07.769Z,10.70
2022-08-26T19:49:35.356Z,11.90
2022-08-26T19:52:03.561Z,13.00
2022-08-26T19:54:31.295Z,11.60
2022-08-26T19:56:58.775Z,12.50
2022-08-26T19:59:26.439Z,15.80
2022-08-26T20:02:01.003Z,16.30
2022-08-26T20:04:30.858Z,14.80
2022-08-26T20:07:00.603Z,16.60
2022-08-26T20:09:33.159Z,16.20
2022-08-26T20:12:01.527Z,14.30
2022-08-26T20:14:30.083Z,14.20
2022-08-26T20:16:57.628Z,11.40
2022-08-26T20:19:43.975Z,15.50
2022-08-26T20:22:12.334Z,10.90
2022-08-26T20:24:40.000Z,10.50
2022-08-26T20:27:08.138Z,11.90
2022-08-26T20:29:36.557Z,11.50
2022-08-26T20:32:08.585Z,11.90
2022-08-26T20:34:37.907Z,15.30
2022-08-26T20:37:05.295Z,13.70
2022-08-26T20:39:32.762Z,14.30
2022-08-26T20:41:59.795Z,10.70
2022-08-26T20:44:27.875Z,10.30
2022-08-26T20:46:56.715Z,13.20
2022-08-26T20:49:23.974Z,11.60
2022-08-26T20:51:52.247Z,9.60
2022-08-26T20:54:25.029Z,13.70
2022-08-26T20:56:55.475Z,13.10
2022-08-26T20:59:23.034Z,11.50
2022-08-26T21:01:50.612Z,11.40
2022-08-26T21:04:26.195Z,15.30
2022-08-26T21:06:54.214Z,13.00
2022-08-26T21:09:23.314Z,11.90
2022-08-26T21:11:50.875Z,12.60
2022-08-26T21:14:19.036Z,12.80
2022-08-26T21:16:47.922Z,10.00
2022-08-26T21:19:18.065Z,12.00
2022-08-26T21:21:46.741Z,10.10
2022-08-26T21:24:13.896Z,13.50
2022-08-26T21:26:41.027Z,10.50
2022-08-26T21:29:09.776Z,11.50
2022-08-26T21:31:39.146Z,11.80
2022-08-26T21:34:09.232Z,14.80
2022-08-26T21:36:36.214Z,13.20
2022-08-26T21:39:05.982Z,13.10
2022-08-26T21:41:36.154Z,11.90
2022-08-26T21:44:03.394Z,12.90
2022-08-26T21:46:31.174Z,12.20
2022-08-26T21:49:00.046Z,12.10
2022-08-26T21:51:30.472Z,13.10
2022-08-26T21:53:58.513Z,13.60
2022-08-26T21:56:27.353Z,14.80
2022-08-26T21:58:55.894Z,11.20
2022-08-26T22:01:25.191Z,11.60
2022-08-26T22:03:53.018Z,13.70
2022-08-26T22:06:22.274Z,13.70
2022-08-26T22:08:49.846Z,14.40
2022-08-26T22:11:17.669Z,13.90
2022-08-26T22:13:45.554Z,12.60
2022-08-26T22:16:13.385Z,13.60
2022-08-26T22:18:43.438Z,17.40
2022-08-26T22:21:16.374Z,13.70
2022-08-26T22:23:43.695Z,15.80
2022-08-26T22:26:12.174Z,18.90
2022-08-26T22:28:39.413Z,14.20
2022-08-26T22:31:08.333Z,14.20
2022-08-26T22:33:35.161Z,14.70
2022-08-26T22:36:02.394Z,16.00
2022-08-26T22:38:29.055Z,16.90
2022-08-26T22:40:56.912Z,15.10
2022-08-26T22:43:24.874Z,15.90
2022-08-26T22:45:52.965Z,15.90
2022-08-26T22:48:23.774Z,15.00
2022-08-26T22:50:51.324Z,15.00
2022-08-26T22:53:19.194Z,16.40
2022-08-26T22:55:46.443Z,17.10
2022-08-26T22:58:16.174Z,15.10
2022-08-26T23:00:44.887Z,16.80
2022-08-26T23:03:12.536Z,17.20
2022-08-26T23:05:40.493Z,15.00
2022-08-26T23:08:08.633Z,17.90
2022-08-26T23:10:37.035Z,17.00
2022-08-26T23:13:05.226Z,19.70
2022-08-26T23:15:32.274Z,15.10
2022-08-26T23:17:59.110Z,16.00
2022-08-26T23:20:27.155Z,17.10
2022-08-26T23:22:54.653Z,15.50
2022-08-26T23:25:22.313Z,17.80
2022-08-26T23:27:51.998Z,15.40
2022-08-26T23:30:24.580Z,14.30
2022-08-26T23:32:51.416Z,13.40
2022-08-26T23:35:21.650Z,13.80
2022-08-26T23:37:52.921Z,13.70
2022-08-26T23:40:32.243Z,12.70
2022-08-26T23:43:02.928Z,13.30
2022-08-26T23:45:30.617Z,15.00
2022-08-26T23:47:57.254Z,13.20
2022-08-26T23:50:48.976Z,15.60
2022-08-26T23:53:20.308Z,13.90
2022-08-26T23:55:53.174Z,12.30
2022-08-26T23:58:21.373Z,11.80
